createdAt,value
2019-04-23T00:01:29.927Z,99633.36
2019-04-23T00:03:58.479Z,99630.75
2019-04-23T00:06:40.642Z,99624.74
2019-04-23T00:14:12.210Z,99621.86
2019-04-23T00:16:40.879Z,99617.08
2019-04-23T00:19:11.701Z,99618.67
2019-04-23T00:21:52.126Z,99608.53
2019-04-23T00:27:23.964Z,99602.70
2019-04-23T00:29:53.501Z,99602.78
2019-04-23T00:32:23.354Z,99605.92
2019-04-23T00:35:04.267Z,99596.69
2019-04-23T00:37:25.481Z,99596.98
2019-04-23T00:42:29.598Z,99584.99
2019-04-23T00:44:51.771Z,99586.05
2019-04-23T00:47:28.310Z,99588.95
2019-04-23T00:49:58.603Z,99582.22
2019-04-23T00:52:26.591Z,99583.70
2019-04-23T00:55:07.533Z,99584.75
2019-04-23T00:57:29.309Z,99586.80
2019-04-23T01:00:06.440Z,99578.56
2019-04-23T01:02:31.200Z,99583.84
2019-04-23T01:05:11.733Z,99575.44
2019-04-23T01:07:32.070Z,99575.78
2019-04-23T01:10:10.271Z,99575.44
2019-04-23T01:12:52.909Z,99571.08
2019-04-23T01:15:11.489Z,99562.75
2019-04-23T01:20:14.831Z,99561.14
2019-04-23T01:22:27.465Z,99564.10
2019-04-23T01:25:09.767Z,99563.56
2019-04-23T01:28:03.962Z,99557.74
2019-04-23T01:30:32.874Z,99562.95
2019-04-23T01:33:09.238Z,99557.39
2019-04-23T01:35:41.674Z,99559.00
2019-04-23T01:38:11.595Z,99554.48
2019-04-23T01:40:40.678Z,99548.10
2019-04-23T01:43:16.464Z,99541.67
2019-04-23T01:45:44.401Z,99537.31
2019-04-23T01:48:18.472Z,99537.72
2019-04-23T01:50:53.128Z,99530.17
2019-04-23T01:53:27.302Z,99528.45
2019-04-23T01:56:01.264Z,99526.74
2019-04-23T02:01:00.754Z,99522.23
2019-04-23T02:06:00.027Z,99510.52
2019-04-23T02:08:32.169Z,99512.20
2019-04-23T02:11:07.970Z,99507.03
2019-04-23T02:13:38.793Z,99500.92
2019-04-23T02:16:05.188Z,99494.81
2019-04-23T02:18:38.822Z,99490.02
2019-04-23T02:21:10.620Z,99487.14
2019-04-23T02:23:57.364Z,99481.52
2019-04-23T02:26:21.684Z,99474.47
2019-04-23T02:29:14.661Z,99457.16
2019-04-23T02:31:45.262Z,99457.70
2019-04-23T02:34:01.175Z,99468.53
2019-04-23T02:36:32.643Z,99465.70
2019-04-23T02:38:58.260Z,99465.39
2019-04-23T02:44:11.505Z,99460.72
2019-04-23T02:46:27.364Z,99457.61
2019-04-23T02:54:16.419Z,99453.66
2019-04-23T03:02:05.735Z,99457.94
2019-04-23T03:04:21.974Z,99457.55
2019-04-23T03:06:48.134Z,99451.28
2019-04-23T03:09:23.658Z,99458.78
2019-04-23T03:11:47.907Z,99453.48
2019-04-23T03:14:24.204Z,99456.31
2019-04-23T03:16:56.318Z,99458.45
2019-04-23T03:19:35.178Z,99454.63
2019-04-23T03:22:01.596Z,99453.69
2019-04-23T03:29:49.092Z,99443.34
2019-04-23T03:32:45.758Z,99432.69
2019-04-23T03:37:23.470Z,99427.84
2019-04-23T03:40:02.146Z,99426.31
2019-04-23T03:42:17.330Z,99415.89
2019-04-23T03:47:24.190Z,99411.88
2019-04-23T03:49:55.370Z,99410.23
2019-04-23T03:52:27.827Z,99410.53
2019-04-23T03:57:24.884Z,99410.53
2019-04-23T04:00:03.974Z,99400.84
2019-04-23T04:02:43.991Z,99399.99
2019-04-23T04:04:58.467Z,99405.86
2019-04-23T04:07:43.839Z,99409.16
2019-04-23T04:10:05.317Z,99400.77
2019-04-23T04:15:05.130Z,99400.34
2019-04-23T04:20:05.133Z,99404.30
2019-04-23T04:25:06.992Z,99402.64
2019-04-23T04:27:45.850Z,99402.61
2019-04-23T04:30:10.741Z,99394.68
2019-04-23T04:32:44.687Z,99403.06
2019-04-23T04:35:24.945Z,99399.84
2019-04-23T04:38:06.184Z,99404.75
2019-04-23T04:40:23.360Z,99406.81
2019-04-23T04:43:02.148Z,99401.23
2019-04-23T04:45:43.232Z,99394.64
2019-04-23T04:47:44.485Z,99401.77
2019-04-23T04:50:18.832Z,99399.39
2019-04-23T04:53:06.163Z,99393.06
2019-04-23T04:55:21.280Z,99391.27
2019-04-23T04:58:07.450Z,99392.14
2019-04-23T05:00:32.597Z,99387.16
2019-04-23T05:03:18.039Z,99387.40
2019-04-23T05:05:55.292Z,99377.02
2019-04-23T05:07:54.794Z,99377.51
2019-04-23T05:13:26.340Z,99378.98
2019-04-23T05:15:28.231Z,99374.28
2019-04-23T05:20:58.494Z,99361.80
2019-04-23T05:23:23.513Z,99367.87
2019-04-23T05:25:40.061Z,99356.56
2019-04-23T05:28:14.438Z,99355.89
2019-04-23T05:33:17.961Z,99350.56
2019-04-23T05:36:06.001Z,99344.38
2019-04-23T05:38:38.031Z,99342.16
2019-04-23T05:40:59.219Z,99338.59
2019-04-23T05:43:19.362Z,99343.20
2019-04-23T05:46:16.022Z,99340.23
2019-04-23T05:48:25.591Z,99339.44
2019-04-23T05:53:27.580Z,99339.81
2019-04-23T05:56:01.601Z,99340.49
2019-04-23T06:01:49.563Z,99339.08
2019-04-23T06:04:10.481Z,99339.08
2019-04-23T06:06:45.465Z,99338.59
2019-04-23T06:09:12.746Z,99339.55
2019-04-23T06:11:45.719Z,99332.41
2019-04-23T06:14:13.045Z,99339.41
2019-04-23T06:19:14.302Z,99331.96
2019-04-23T06:21:54.986Z,99319.12
2019-04-23T06:26:45.816Z,99315.81
2019-04-23T06:29:20.430Z,99309.64
2019-04-23T06:31:50.712Z,99311.64
2019-04-23T06:34:21.657Z,99322.68
2019-04-23T06:36:51.429Z,99312.97
2019-04-23T06:39:26.002Z,99316.00
2019-04-23T06:41:55.147Z,99313.77
2019-04-23T06:44:25.613Z,99317.20
2019-04-23T06:47:05.729Z,99305.52
2019-04-23T06:49:30.474Z,99303.03
2019-04-23T06:52:11.858Z,99297.55
2019-04-23T06:54:36.118Z,99295.74
2019-04-23T06:57:14.098Z,99288.75
2019-04-23T06:59:32.352Z,99282.90
2019-04-23T07:02:14.995Z,99274.11
2019-04-23T07:04:41.021Z,99274.84
2019-04-23T07:07:31.511Z,99273.31
2019-04-23T07:09:35.239Z,99273.97
2019-04-23T07:12:08.677Z,99268.63
2019-04-23T07:14:51.445Z,99267.61
2019-04-23T07:17:11.336Z,99259.38
2019-04-23T07:19:42.238Z,99264.23
2019-04-23T07:22:16.396Z,99255.36
2019-04-23T07:24:47.617Z,99261.86
2019-04-23T07:27:19.090Z,99254.77
2019-04-23T07:29:56.829Z,99254.83
2019-04-23T07:32:15.194Z,99252.49
2019-04-23T07:35:00.915Z,99240.53
2019-04-23T07:37:24.066Z,99253.08
2019-04-23T07:40:17.724Z,99246.12
2019-04-23T07:42:55.085Z,99241.77
2019-04-23T07:45:24.039Z,99251.36
2019-04-23T07:48:10.881Z,99237.40
2019-04-23T08:05:43.714Z,99229.00
2019-04-23T08:08:15.135Z,99237.94
2019-04-23T08:11:14.391Z,99225.69
2019-04-23T08:13:32.339Z,99215.27
2019-04-23T08:15:55.102Z,99220.51
2019-04-23T08:18:29.942Z,99223.48
2019-04-23T08:20:55.641Z,99227.34
2019-04-23T08:23:50.708Z,99252.13
2019-04-23T08:26:34.784Z,99223.99
2019-04-23T08:29:12.303Z,99206.97
2019-04-23T08:31:43.911Z,99207.39
2019-04-23T08:36:50.109Z,99207.08
2019-04-23T08:39:18.279Z,99215.05
2019-04-23T08:42:09.512Z,99212.11
2019-04-23T08:44:27.300Z,99248.27
2019-04-23T08:47:02.662Z,99204.16
2019-04-23T08:49:47.019Z,99201.92
2019-04-23T08:52:14.750Z,99210.58
2019-04-23T08:54:49.835Z,99193.14
2019-04-23T08:57:17.146Z,99191.52
2019-04-23T09:02:24.001Z,99208.71
2019-04-23T09:04:49.968Z,99208.24
2019-04-23T09:09:53.714Z,99194.27
2019-04-23T09:14:52.422Z,99184.13
2019-04-23T09:20:07.117Z,99183.02
2019-04-23T09:24:57.455Z,99166.67
2019-04-23T09:27:31.202Z,99188.83
2019-04-23T09:35:15.025Z,99191.94
2019-04-23T09:40:28.532Z,99185.58
2019-04-23T09:43:00.535Z,99193.03
2019-04-23T09:45:51.567Z,99176.15
2019-04-23T09:48:29.897Z,99180.34
2019-04-23T09:50:51.736Z,99170.45
2019-04-23T09:55:41.868Z,99169.89
2019-04-23T09:58:15.462Z,99172.52
2019-04-23T10:00:54.493Z,99159.34
2019-04-23T10:03:16.657Z,99148.94
2019-04-23T10:05:43.714Z,99152.88
2019-04-23T10:08:15.328Z,99151.55
2019-04-23T10:10:34.384Z,99145.38
2019-04-23T10:13:04.348Z,99134.01
2019-04-23T10:15:39.039Z,99132.72
2019-04-23T10:18:05.080Z,99138.96
2019-04-23T10:20:36.296Z,99128.84
2019-04-23T10:23:06.211Z,99145.42
2019-04-23T10:25:36.096Z,99127.84
2019-04-23T10:28:11.374Z,99138.19
2019-04-23T10:30:42.617Z,99125.70
2019-04-23T10:33:13.832Z,99137.70
2019-04-23T10:35:53.124Z,99119.39
2019-04-23T10:38:18.635Z,99140.23
2019-04-23T10:40:50.119Z,99143.86
2019-04-23T10:43:17.572Z,99113.70
2019-04-23T10:46:08.023Z,99118.30
2019-04-23T10:49:04.535Z,99141.43
2019-04-23T10:51:40.968Z,99135.48
2019-04-23T10:54:24.303Z,99121.30
2019-04-23T10:59:21.531Z,99146.56
2019-04-23T11:01:53.043Z,99106.73
2019-04-23T11:04:34.959Z,99128.93
2019-04-23T11:06:50.365Z,99117.03
2019-04-23T11:09:38.637Z,99117.62
2019-04-23T11:12:01.477Z,99117.42
2019-04-23T11:14:30.936Z,99119.70
2019-04-23T11:17:07.132Z,99122.53
2019-04-23T11:19:39.974Z,99106.57
2019-04-23T11:22:24.775Z,99104.95
2019-04-23T11:24:54.862Z,99142.81
2019-04-23T11:27:05.431Z,99103.83
2019-04-23T11:35:03.250Z,99152.27
2019-04-23T11:37:24.979Z,99092.86
2019-04-23T11:39:55.726Z,99098.25
2019-04-23T11:44:49.880Z,99085.02
2019-04-23T11:47:32.728Z,99103.88
2019-04-23T11:49:53.486Z,99099.78
2019-04-23T11:52:34.495Z,99104.86
2019-04-23T11:54:53.057Z,99108.27
2019-04-23T11:57:40.803Z,99076.45
2019-04-23T11:59:53.364Z,99090.69
2019-04-23T12:02:46.671Z,99090.31
2019-04-23T12:05:26.844Z,99095.77
2019-04-23T12:07:59.125Z,99077.37
2019-04-23T12:13:03.222Z,99077.22
2019-04-23T12:15:37.607Z,99059.77
2019-04-23T12:18:28.694Z,99079.13
2019-04-23T12:23:28.121Z,99084.92
2019-04-23T12:25:45.824Z,99081.86
2019-04-23T12:28:16.528Z,99092.10
2019-04-23T12:30:45.143Z,99092.05
2019-04-23T12:33:20.751Z,99097.88
2019-04-23T12:35:40.425Z,99100.49
2019-04-23T12:38:22.071Z,99091.48
2019-04-23T12:40:49.264Z,99112.05
2019-04-23T12:43:25.685Z,99103.63
2019-04-23T12:45:47.372Z,99116.45
2019-04-23T12:53:32.217Z,99107.20
2019-04-23T12:56:16.961Z,99101.07
2019-04-23T12:58:28.973Z,99099.77
2019-04-23T13:00:57.945Z,99104.84
2019-04-23T13:03:33.689Z,99110.22
2019-04-23T13:06:06.483Z,99091.56
2019-04-23T13:08:41.472Z,99117.67
2019-04-23T13:11:07.685Z,99087.61
2019-04-23T13:16:18.068Z,99092.92
2019-04-23T13:21:30.095Z,99092.78
2019-04-23T13:23:43.860Z,99095.20
2019-04-23T13:26:11.766Z,99103.72
2019-04-23T13:29:13.552Z,99092.22
2019-04-23T13:44:08.503Z,99102.00
2019-04-23T13:46:46.652Z,99086.23
2019-04-23T13:49:03.192Z,99086.52
2019-04-23T13:51:32.706Z,99086.68
2019-04-23T13:54:15.781Z,99087.20
2019-04-23T13:57:03.997Z,99100.82
2019-04-23T13:59:16.256Z,99083.43
2019-04-23T14:01:54.738Z,99077.95
2019-04-23T14:04:33.107Z,99091.91
2019-04-23T14:06:50.622Z,99068.39
2019-04-23T14:09:31.465Z,99065.06
2019-04-23T14:11:48.908Z,99053.64
2019-04-23T14:14:43.731Z,99058.25
2019-04-23T14:17:02.588Z,99055.77
2019-04-23T14:19:26.066Z,99080.73
2019-04-23T14:22:03.337Z,99067.04
2019-04-23T14:24:38.121Z,99051.09
2019-04-23T14:27:07.325Z,99043.11
2019-04-23T14:29:41.453Z,99042.73
2019-04-23T14:32:08.792Z,99032.34
2019-04-23T14:34:48.391Z,99046.70
2019-04-23T14:37:11.877Z,99057.42
2019-04-23T14:39:40.742Z,99034.78
2019-04-23T14:42:21.391Z,99034.75
2019-04-23T14:44:43.765Z,99051.09
2019-04-23T14:47:24.410Z,99027.33
2019-04-23T14:50:14.993Z,99053.20
2019-04-23T14:52:31.020Z,99039.14
2019-04-23T14:55:37.913Z,99051.83
2019-04-23T14:57:45.449Z,99047.27
2019-04-23T15:00:01.879Z,99088.53
2019-04-23T15:02:36.334Z,99044.83
2019-04-23T15:07:33.843Z,99065.14
2019-04-23T15:10:24.506Z,99054.17
2019-04-23T15:12:41.782Z,99057.06
2019-04-23T15:17:40.136Z,99075.98
2019-04-23T15:20:20.007Z,99092.20
2019-04-23T15:23:02.734Z,99112.59
2019-04-23T15:25:26.381Z,99132.27
2019-04-23T15:28:05.878Z,99079.81
2019-04-23T15:30:15.704Z,99089.98
2019-04-23T15:33:07.670Z,99107.48
2019-04-23T15:35:45.900Z,99091.66
2019-04-23T15:38:27.222Z,99074.53
2019-04-23T15:40:42.088Z,99143.47
2019-04-23T15:43:24.853Z,99109.59
2019-04-23T15:46:11.632Z,99105.20
2019-04-23T15:48:58.053Z,99151.98
2019-04-23T15:53:52.231Z,99100.97
2019-04-23T15:56:26.867Z,99102.33
2019-04-23T15:59:04.304Z,99078.63
2019-04-23T16:03:27.475Z,99106.73
2019-04-23T16:05:57.419Z,99107.15
2019-04-23T16:14:47.899Z,99079.39
2019-04-23T16:17:04.148Z,99109.05
2019-04-23T16:19:36.674Z,99106.53
2019-04-23T16:24:26.658Z,99106.01
2019-04-23T16:27:09.329Z,99111.10
2019-04-23T16:29:44.459Z,99112.66
2019-04-23T16:32:14.820Z,99101.91
2019-04-23T16:34:34.080Z,99110.86
2019-04-23T16:37:08.208Z,99090.00
2019-04-23T16:39:39.460Z,99129.91
2019-04-23T16:42:17.163Z,99103.85
2019-04-23T16:45:06.335Z,99103.23
2019-04-23T16:49:51.089Z,99099.68
2019-04-23T16:52:17.732Z,99101.42
2019-04-23T17:00:06.686Z,99105.15
2019-04-23T17:02:29.675Z,99094.11
2019-04-23T17:04:54.408Z,99109.21
2019-04-23T17:07:20.431Z,99087.20
2019-04-23T17:10:16.077Z,99096.77
2019-04-23T17:12:17.549Z,99112.30
2019-04-23T17:15:03.344Z,99106.12
2019-04-23T17:17:25.001Z,99132.56
2019-04-23T17:20:10.138Z,99104.53
2019-04-23T17:22:33.924Z,99105.66
2019-04-23T17:27:39.068Z,99102.19
2019-04-23T17:30:13.163Z,99099.40
2019-04-23T17:32:36.197Z,99105.41
2019-04-23T17:35:17.828Z,99103.14
2019-04-23T17:38:16.679Z,99108.64
2019-04-23T17:40:53.650Z,99115.05
2019-04-23T17:43:06.329Z,99096.61
2019-04-23T17:45:48.998Z,99090.48
2019-04-23T17:48:34.991Z,99099.20
2019-04-23T17:53:59.886Z,99089.29
2019-04-23T17:59:22.892Z,99095.84
2019-04-23T18:02:30.457Z,99126.33
2019-04-23T18:04:45.251Z,99097.79
2019-04-23T18:07:19.280Z,99107.63
2019-04-23T18:09:45.584Z,99101.70
2019-04-23T18:12:25.463Z,99098.67
2019-04-23T18:14:42.208Z,99101.65
2019-04-23T18:17:24.260Z,99101.65
2019-04-23T18:20:12.447Z,99105.83
2019-04-23T18:25:17.084Z,99123.30
2019-04-23T18:27:48.319Z,99094.37
2019-04-23T18:35:29.835Z,99114.02
2019-04-23T18:40:54.713Z,99102.98
2019-04-23T18:43:20.171Z,99096.49
2019-04-23T18:45:46.781Z,99110.28
2019-04-23T18:56:12.966Z,99139.59
2019-04-23T18:58:52.190Z,99130.23
2019-04-23T19:03:59.175Z,99136.15
2019-04-23T19:09:13.976Z,99130.04
2019-04-23T19:11:58.175Z,99159.14
2019-04-23T19:14:32.182Z,99149.09
2019-04-23T19:17:26.227Z,99142.69
2019-04-23T19:19:29.658Z,99142.69
2019-04-23T19:27:10.829Z,99156.98
2019-04-23T19:29:39.603Z,99146.87
2019-04-23T19:37:05.734Z,99167.67
2019-04-23T19:39:38.447Z,99148.48
2019-04-23T19:42:15.392Z,99175.17
2019-04-23T19:44:43.887Z,99164.56
2019-04-23T19:49:45.334Z,99139.39
2019-04-23T19:52:18.757Z,99146.92
2019-04-23T19:54:55.331Z,99155.02
2019-04-23T19:57:19.915Z,99145.58
2019-04-23T19:59:51.120Z,99138.17
2019-04-23T20:02:33.861Z,99143.20
2019-04-23T20:05:05.679Z,99139.66
2019-04-23T20:12:42.868Z,99143.70
2019-04-23T20:14:56.502Z,99143.70
2019-04-23T20:18:34.038Z,99152.12
2019-04-23T20:19:56.764Z,99144.80
2019-04-23T20:22:42.187Z,99142.66
2019-04-23T20:25:30.074Z,99158.72
2019-04-23T20:27:33.723Z,99138.44
2019-04-23T20:35:27.475Z,99142.70
2019-04-23T20:40:45.414Z,99143.53
2019-04-23T20:42:58.744Z,99146.38
2019-04-23T20:45:39.628Z,99146.38
2019-04-23T20:48:08.871Z,99133.44
2019-04-23T20:50:39.765Z,99133.44
2019-04-23T20:53:09.222Z,99154.44
2019-04-23T20:58:14.153Z,99148.13
2019-04-23T21:00:56.510Z,99149.88
2019-04-23T21:03:37.588Z,99141.13
2019-04-23T21:05:50.549Z,99146.86
2019-04-23T21:08:50.794Z,99125.50
2019-04-23T21:10:51.009Z,99125.50
2019-04-23T21:13:43.503Z,99136.62
2019-04-23T21:16:15.295Z,99144.86
2019-04-23T21:20:56.221Z,99133.09
2019-04-23T21:23:36.065Z,99129.23
2019-04-23T21:26:00.166Z,99128.72
2019-04-23T21:33:56.898Z,99112.90
2019-04-23T21:36:18.827Z,99153.40
2019-04-23T21:41:52.571Z,99121.69
2019-04-23T21:46:47.990Z,99117.83
2019-04-23T21:52:02.583Z,99123.08
2019-04-23T21:54:23.156Z,99104.66
2019-04-23T21:56:48.599Z,99113.59
2019-04-23T21:59:10.115Z,99113.59
2019-04-23T22:06:56.052Z,99102.48
2019-04-23T22:09:31.617Z,99108.56
2019-04-23T22:19:31.783Z,99085.31
2019-04-23T22:22:22.165Z,99084.58
2019-04-23T22:24:32.183Z,99083.41
2019-04-23T22:27:05.872Z,99083.41
2019-04-23T22:29:51.947Z,99079.73
2019-04-23T22:32:08.321Z,99097.08
2019-04-23T22:39:45.807Z,99068.25
2019-04-23T22:42:36.327Z,99068.25
2019-04-23T22:47:13.585Z,99075.46
2019-04-23T22:49:53.208Z,99069.37
2019-04-23T22:52:23.094Z,99077.97
2019-04-23T22:57:16.990Z,99065.83
2019-04-23T23:00:12.979Z,99070.86
2019-04-23T23:07:50.725Z,99078.50
2019-04-23T23:10:12.869Z,99064.13
2019-04-23T23:12:51.359Z,99064.69
2019-04-23T23:15:19.072Z,99071.37
2019-04-23T23:17:50.899Z,99067.70
2019-04-23T23:20:23.919Z,99067.70
2019-04-23T23:23:07.354Z,99061.10
2019-04-23T23:27:53.719Z,99056.41
2019-04-23T23:30:19.500Z,99050.83
2019-04-23T23:35:21.864Z,99054.63
2019-04-23T23:37:49.937Z,99049.42
2019-04-23T23:40:38.667Z,99048.40
2019-04-23T23:43:08.714Z,99057.38
2019-04-23T23:45:31.569Z,99051.80
2019-04-23T23:47:59.391Z,99045.52
2019-04-23T23:53:05.925Z,99057.61
2019-04-23T23:55:33.576Z,99054.26
2019-04-23T23:58:16.200Z,99040.63
